Latest Weather Observations for Adelaide Airport

IDS60801

Issued at 7:01 pm CST Sunday 5 July 2015 (issued every 30 minutes, with the page automatically refreshed every 10 minutes)

About weather observations | Map of weather stations | Latest weather observations for SA | Other Formats
Station Details ID: 023034 Name: ADELAIDE AIRPORT Lat: -34.95 Lon: 138.52 Height: 2.0 m
Data from the previous 72 hours. | See also: Recent months at Adelaide Airport
Date/Time
CST
Temp
°C
App
Temp
°C
Dew
Point
Rel
Hum
%
Delta-T
°C
Wind Press
QNH
hPa
Press
MSL
hPa
Rain
since 9 am
mm
Dir
 
Spd
km/h
Gust
km/h
Spd
kts
Gust
kts
05/06:30pm 15.4 11.6 3.9 46 5.3 N 13 19 7 10 1017.1 1017.1 0.0
05/05:30pm 15.7 11.4 3.4 43 5.6 N 15 20 8 11 1016.8 1016.8 0.0
05/05:00pm 15.8 11.3 4.2 46 5.4 N 17 26 9 14 1016.8 1016.8 0.0
05/04:30pm 16.0 11.1 3.9 44 5.6 N 19 26 10 14 1017.0 1017.0 0.0
05/04:00pm 16.2 11.3 4.2 45 5.6 NNW 19 26 10 14 1017.2 1017.2 0.0
05/03:30pm 16.6 11.5 4.2 43 5.8 N 20 30 11 16 1017.3 1017.3 0.0
05/03:00pm 16.8 11.5 5.0 45 5.6 NNW 22 30 12 16 1017.4 1017.4 0.0
05/02:30pm 16.3 10.7 5.4 48 5.2 NNW 24 30 13 16 1017.6 1017.6 0.0
05/02:00pm 16.4 11.2 5.6 49 5.2 NNW 22 28 12 15 1017.8 1017.8 0.0
05/01:30pm 15.8 10.1 4.7 47 5.2 NNW 24 32 13 17 1018.2 1018.2 0.0
05/01:00pm 16.1 10.2 4.0 44 5.6 N 24 30 13 16 1018.7 1018.7 0.0
05/12:30pm 15.9 10.3 3.7 44 5.6 N 22 30 12 16 1019.1 1019.1 0.0
05/12:00pm 15.4 10.4 4.4 48 5.1 N 20 28 11 15 1019.6 1019.6 0.0
05/11:30am 14.3 9.5 5.6 56 4.1 N 20 28 11 15 1020.0 1020.0 0.0
05/10:30am 13.0 7.8 5.7 61 3.4 NNE 22 26 12 14 1020.7 1020.7 0.0
05/09:30am 11.6 6.8 5.5 66 2.8 NNE 20 30 11 16 1020.8 1020.8 0.0
05/09:00am 10.9 7.1 5.7 70 2.4 NE 15 17 8 9 1020.9 1020.9 0.0
05/08:30am 9.2 6.1 5.7 79 1.6 NE 11 13 6 7 1020.9 1020.9 0.0
05/08:00am 7.8 4.2 4.8 81 1.3 NE 13 17 7 9 1020.8 1020.8 0.0
05/07:30am 6.9 3.2 4.3 83 1.1 NE 13 17 7 9 1020.6 1020.6 0.0
05/07:00am 7.1 3.8 4.6 84 1.1 NE 11 15 6 8 1020.4 1020.4 0.0
05/06:30am 6.8 2.8 4.7 86 0.9 NE 15 17 8 9 1020.5 1020.5 0.0
05/05:30am 6.4 2.7 4.3 86 0.9 NE 13 15 7 8 1020.2 1020.2 0.0
05/05:00am 6.8 2.8 4.7 86 0.9 NE 15 17 8 9 1020.2 1020.2 0.0
05/04:30am 7.4 3.4 5.1 85 1.0 NE 15 17 8 9 1020.1 1020.1 0.0
05/04:00am 7.0 3.4 5.2 88 0.8 NE 13 15 7 8 1020.2 1020.2 0.0
05/03:30am 6.8 3.2 5.2 89 0.7 NE 13 15 7 8 1020.4 1020.4 0.0
05/03:00am 7.2 3.7 5.4 88 0.8 NE 13 15 7 8 1020.6 1020.6 0.0
05/02:30am 7.0 3.4 5.2 88 0.8 ENE 13 13 7 7 1020.7 1020.7 0.0
05/02:00am 6.5 3.3 4.9 89 0.7 NE 11 11 6 6 1020.7 1020.7 0.0
05/01:30am 7.0 3.8 5.2 88 0.8 NE 11 11 6 6 1020.7 1020.7 0.0
05/01:00am 7.4 4.7 5.6 88 0.8 NE 9 13 5 7 1020.9 1020.9 0.0
05/12:30am 7.2 4.9 4.9 85 1.0 NE 6 7 3 4 1021.4 1021.4 0.0
 
Date/Time
CST
Temp
°C
App
Temp
°C
Dew
Point
Rel
Hum
%
Delta-T
°C
Wind Press
QNH
hPa
Press
MSL
hPa
Rain
since 9 am
mm
Dir
 
Spd
km/h
Gust
km/h
Spd
kts
Gust
kts
04/11:30pm 7.1 3.9 5.3 88 0.8 NE 11 11 6 6 1021.7 1021.7 0.0
04/11:00pm 8.1 5.1 6.1 87 0.9 NNE 11 13 6 7 1021.8 1021.8 0.0
04/10:30pm 9.2 5.8 6.1 81 1.4 NNE 13 15 7 8 1021.6 1021.6 0.0
04/10:00pm 8.4 6.2 5.5 82 1.3 NE 6 7 3 4 1021.7 1021.7 0.0
04/09:30pm 8.8 6.1 5.7 81 1.4 NE 9 11 5 6 1021.7 1021.7 0.0
04/09:00pm 9.0 5.9 5.7 80 1.5 NE 11 11 6 6 1021.7 1021.7 0.0
04/08:30pm 8.7 6.0 5.6 81 1.4 ENE 9 11 5 6 1022.0 1022.0 0.0
04/08:00pm 9.1 7.0 6.0 81 1.4 NE 6 7 3 4 1022.3 1022.3 0.0
04/07:30pm 9.2 6.6 6.1 81 1.4 ENE 9 9 5 5 1022.1 1022.1 0.0
04/07:00pm 9.5 6.5 6.2 80 1.5 ENE 11 13 6 7 1022.1 1022.1 0.0
04/06:30pm 9.9 7.4 6.7 80 1.5 ENE 9 9 5 5 1022.0 1022.0 0.0
04/06:00pm 11.1 10.4 7.1 76 1.9 CALM 0 0 0 0 1021.9 1021.9 0.0
04/05:30pm 12.7 10.9 7.8 72 2.4 N 7 7 4 4 1021.8 1021.8 0.0
04/05:00pm 14.7 12.3 6.9 59 3.8 N 9 13 5 7 1021.7 1021.7 0.0
04/04:30pm 15.3 12.7 6.1 54 4.4 NNW 9 13 5 7 1021.6 1021.6 0.0
04/04:00pm 15.8 12.9 6.3 53 4.6 NNW 11 15 6 8 1021.8 1021.8 0.0
04/03:30pm 16.2 12.7 5.5 49 5.1 N 13 17 7 9 1021.7 1021.7 0.0
04/03:00pm 15.8 11.9 5.2 49 5.0 NNW 15 20 8 11 1021.8 1021.8 0.0
04/02:30pm 15.5 12.1 6.1 53 4.5 WNW 13 15 7 8 1021.9 1021.9 0.0
04/02:00pm 15.0 11.5 5.5 53 4.5 NW 13 17 7 9 1022.1 1022.1 0.0
04/01:30pm 14.8 12.0 5.2 52 4.5 WNW 9 13 5 7 1022.4 1022.4 0.0
04/01:00pm 14.9 12.2 5.6 53 4.4 NNW 9 11 5 6 1022.8 1022.8 0.0
04/12:30pm 15.4 12.3 5.7 52 4.6 NNW 11 15 6 8 1023.3 1023.3 0.0
04/12:00pm 14.9 12.1 5.3 52 4.5 N 9 13 5 7 1023.6 1023.6 0.0
04/11:30am 14.2 11.2 6.0 58 3.9 NNW 11 15 6 8 1024.2 1024.2 0.0
04/11:00am 13.6 10.2 6.0 60 3.6 NNE 13 17 7 9 1024.5 1024.5 0.0
04/10:30am 13.4 10.4 6.2 61 3.4 NE 11 15 6 8 1024.8 1024.8 0.0
04/10:00am 12.9 9.1 5.9 62 3.3 NNE 15 17 8 9 1024.8 1024.8 0.0
04/09:30am 11.6 7.4 5.8 67 2.7 NNE 17 19 9 10 1024.9 1024.9 0.0
04/09:00am 10.6 7.7 6.5 76 1.9 NE 11 15 6 8 1024.8 1024.8 0.0
04/08:30am 9.1 6.2 6.3 83 1.3 NE 11 13 6 7 1024.7 1024.7 0.0
04/08:00am 8.2 5.6 6.0 86 1.0 NE 9 11 5 6 1024.7 1024.7 0.0
04/07:30am 7.4 4.7 5.6 88 0.8 ENE 9 11 5 6 1024.5 1024.5 0.0
04/07:00am 6.9 4.5 5.3 89 0.7 E 7 9 4 5 1024.5 1024.5 0.0
04/06:30am 6.3 4.0 4.7 89 0.7 NNE 6 7 3 4 1024.2 1024.2 0.0
04/06:00am 6.0 4.8 4.6 91 0.6 CALM 0 0 0 0 1024.1 1024.1 0.0
04/05:30am 6.5 3.6 4.9 89 0.7 NE 9 11 5 6 1023.7 1023.7 0.0
04/05:00am 7.2 4.1 5.4 88 0.8 NNE 11 11 6 6 1023.7 1023.7 0.0
04/04:30am 7.3 4.5 5.3 87 0.9 NNE 9 11 5 6 1023.6 1023.6 0.0
04/04:00am 6.5 4.5 4.6 88 0.8 NE 4 7 2 4 1023.8 1023.8 0.0
04/03:30am 6.1 2.8 4.7 91 0.6 NE 11 11 6 6 1023.9 1023.9 0.0
04/03:00am 5.2 2.5 3.8 91 0.6 NE 7 9 4 5 1024.0 1024.0 0.0
04/02:30am 5.3 2.4 4.4 94 0.4 NNE 9 9 5 5 1024.1 1024.1 0.0
04/02:00am 6.5 4.0 4.9 89 0.7 NNE 7 7 4 4 1024.4 1024.4 0.0
04/01:30am 6.0 3.4 4.4 89 0.7 NE 7 9 4 5 1024.4 1024.4 0.0
04/01:00am 6.3 3.0 4.7 89 0.7 NE 11 11 6 6 1024.4 1024.4 0.0
04/12:30am 6.9 4.3 4.3 83 1.1 NE 7 7 4 4 1024.7 1024.7 0.0
04/12:00am 7.6 5.3 5.6 87 0.9 NE 7 7 4 4 1024.9 1024.9 0.0
 
Date/Time
CST
Temp
°C
App
Temp
°C
Dew
Point
Rel
Hum
%
Delta-T
°C
Wind Press
QNH
hPa
Press
MSL
hPa
Rain
since 9 am
mm
Dir
 
Spd
km/h
Gust
km/h
Spd
kts
Gust
kts
03/11:30pm 7.7 5.5 5.4 85 1.0 NE 6 9 3 5 1025.0 1025.0 0.0
03/11:00pm 7.9 6.9 5.7 86 1.0 CALM 0 0 0 0 1025.5 1025.5 0.0
03/10:30pm 8.0 7.0 5.8 86 1.0 CALM 0 0 0 0 1025.5 1025.5 0.0
03/10:00pm 8.1 7.1 5.6 84 1.1 CALM 0 0 0 0 1025.7 1025.7 0.0
03/09:30pm 8.7 7.7 5.8 82 1.3 CALM 0 0 0 0 1026.0 1026.0 0.0
03/09:00pm 9.2 8.2 5.7 79 1.6 CALM 0 0 0 0 1026.1 1026.1 0.0
03/08:30pm 9.5 8.2 6.2 80 1.5 E 2 6 1 3 1026.0 1026.0 0.0
03/08:00pm 9.7 7.5 6.2 79 1.6 E 7 9 4 5 1025.9 1025.9 0.0
03/07:30pm 10.2 8.0 6.3 77 1.8 ESE 7 9 4 5 1026.0 1026.0 0.0
03/07:00pm 9.8 8.6 6.6 80 1.5 ENE 2 7 1 4 1026.1 1026.1 0.0
03/06:30pm 9.8 9.0 6.6 80 1.5 CALM 0 0 0 0 1026.0 1026.0 0.0
03/06:00pm 10.3 9.1 6.4 77 1.8 NW 2 6 1 3 1026.0 1026.0 0.0
03/05:30pm 11.2 10.0 6.3 72 2.3 WNW 2 7 1 4 1026.1 1026.1 0.0
03/05:00pm 11.5 10.2 6.1 69 2.5 WNW 2 7 1 4 1026.4 1026.4 0.0
03/04:30pm 12.1 9.0 5.6 64 3.0 WNW 11 15 6 8 1026.3 1026.3 0.0
03/04:00pm 12.0 9.0 6.0 66 2.8 WNW 11 13 6 7 1026.4 1026.4 0.0
03/03:30pm 11.8 8.8 6.0 67 2.7 WNW 11 13 6 7 1026.3 1026.3 0.0
03/03:00pm 11.8 8.0 6.0 67 2.7 WNW 15 19 8 10 1026.4 1026.4 0.0
03/02:30pm 12.2 9.6 6.0 66 2.9 WNW 9 11 5 6 1026.3 1026.3 0.0
03/02:00pm 12.4 9.5 4.7 59 3.5 N 9 13 5 7 1026.3 1026.3 0.0
03/01:30pm 12.2 9.9 5.5 63 3.1 WNW 7 11 4 6 1026.7 1026.7 0.0
03/01:00pm 12.0 9.3 5.5 64 3.0 WNW 9 13 5 7 1027.3 1027.3 0.0
03/12:30pm 11.3 7.0 5.4 67 2.7 WNW 17 19 9 10 1028.0 1028.0 0.0
03/12:00pm 12.1 9.5 4.3 59 3.5 NW 7 9 4 5 1028.0 1028.0 0.0
03/11:30am 11.4 8.5 4.5 62 3.1 NNW 9 11 5 6 1028.8 1028.8 0.0
03/11:00am 11.8 8.7 3.6 57 3.6 NW 9 11 5 6 1029.1 1029.1 0.0
03/10:30am 11.3 8.7 4.3 62 3.1 NE 7 11 4 6 1029.0 1029.0 0.0
03/10:00am 10.4 7.4 4.0 64 2.8 NE 9 13 5 7 1029.3 1029.3 0.0
03/09:30am 9.9 6.9 3.9 66 2.6 NE 9 11 5 6 1029.3 1029.3 0.0
03/09:00am 8.5 5.5 4.1 74 1.9 ENE 9 11 5 6 1029.4 1029.4 0.0
03/08:30am 6.5 3.0 3.6 82 1.2 ENE 11 11 6 6 1029.5 1029.5 0.0
03/08:00am 4.8 3.3 3.1 89 0.7 CALM 0 0 0 0 1029.8 1029.8 0.0
03/07:30am 3.5 1.8 2.0 90 0.6 CALM 0 2 0 1 1029.5 1029.5 0.0
03/07:00am 3.2 0.3 1.6 89 0.6 E 6 6 3 3 1029.0 1029.0 0.0
03/06:50am 3.4 0.6 2.1 91 0.5 E 6 6 3 3 1029.0 1029.0 0.0
03/06:30am 3.5 0.6 1.7 88 0.7 E 6 7 3 4 1028.7 1028.7 0.0
03/06:00am 3.0 0.4 1.2 88 0.7 ENE 4 6 2 3 1028.7 1028.7 0.0
03/05:30am 2.8 -0.3 1.2 89 0.6 ENE 7 9 4 5 1028.7 1028.7 0.0
03/05:00am 3.2 1.5 1.9 91 0.5 CALM 0 0 0 0 1028.9 1028.9 0.0
03/04:30am 3.7 2.1 2.2 90 0.6 CALM 0 0 0 0 1028.9 1028.9 0.0
03/04:00am 3.7 0.8 2.4 91 0.5 ESE 7 7 4 4 1029.2 1029.2 0.0
03/03:30am 4.0 1.0 2.2 88 0.7 ESE 7 7 4 4 1029.4 1029.4 0.0
03/03:00am 3.5 0.5 2.2 91 0.5 ESE 7 7 4 4 1029.7 1029.7 0.0
03/02:30am 4.0 2.4 2.7 91 0.5 CALM 0 0 0 0 1029.7 1029.7 0.0
03/02:00am 3.7 0.7 2.2 90 0.6 NE 7 9 4 5 1029.4 1029.4 0.0
03/01:30am 4.2 2.6 2.2 87 0.8 CALM 0 0 0 0 1029.7 1029.7 0.0
03/01:00am 5.2 3.6 2.7 84 1.0 CALM 0 0 0 0 1029.8 1029.8 0.0
03/12:30am 4.7 3.2 3.2 90 0.6 CALM 0 0 0 0 1029.9 1029.9 0.0
03/12:00am 5.0 3.5 3.0 87 0.8 CALM 0 0 0 0 1030.1 1030.1 0.0
 
Date/Time
CST
Temp
°C
App
Temp
°C
Dew
Point
Rel
Hum
%
Delta-T
°C
Wind Press
QNH
hPa
Press
MSL
hPa
Rain
since 9 am
mm
Dir
 
Spd
km/h
Gust
km/h
Spd
kts
Gust
kts
02/11:30pm 5.8 4.4 3.4 84 1.0 CALM 0 0 0 0 1030.3 1030.3 0.0
02/11:00pm 6.1 4.3 3.7 84 1.0 E 2 6 1 3 1030.3 1030.3 0.0
02/10:30pm 7.5 4.8 3.7 77 1.6 E 7 7 4 4 1030.4 1030.4 0.0
02/10:00pm 7.2 4.3 2.6 72 1.9 E 7 9 4 5 1030.4 1030.4 0.0
02/09:30pm 7.4 6.2 4.4 81 1.3 CALM 0 0 0 0 1030.6 1030.6 0.0
02/09:00pm 6.9 5.5 3.8 81 1.3 CALM 0 0 0 0 1030.5 1030.5 0.0
02/08:30pm 8.5 7.3 4.6 76 1.7 CALM 0 0 0 0 1030.4 1030.4 0.0
02/08:00pm 9.2 8.0 4.4 72 2.1 CALM 0 0 0 0 1030.3 1030.3 0.0
02/07:30pm 9.2 5.9 4.4 72 2.1 SE 11 17 6 9 1030.1 1030.1 0.0

Other Formats:

Comma delimited format used in spreadsheet applications
http://www.bom.gov.au/fwo/IDS60801/IDS60801.94672.axf

JavaScript Object Notation format (JSON) in row-major order
http://www.bom.gov.au/fwo/IDS60801/IDS60801.94672.json